createdAt,value
2019-02-25T00:00:21.226Z,39.70
2019-02-25T00:02:55.065Z,39.70
2019-02-25T00:05:27.575Z,39.80
2019-02-25T00:07:59.980Z,39.80
2019-02-25T00:10:32.646Z,40.00
2019-02-25T00:13:05.446Z,40.10
2019-02-25T00:15:38.017Z,40.20
2019-02-25T00:18:10.528Z,40.40
2019-02-25T00:20:43.001Z,40.60
2019-02-25T00:23:15.904Z,40.70
2019-02-25T00:25:48.401Z,40.80
2019-02-25T00:28:20.916Z,41.00
2019-02-25T00:30:53.393Z,40.90
2019-02-25T00:33:25.635Z,40.90
2019-02-25T00:35:58.041Z,40.80
2019-02-25T00:38:30.697Z,40.80
2019-02-25T00:41:03.280Z,41.50
2019-02-25T00:43:36.070Z,40.90
2019-02-25T00:46:08.448Z,40.90
2019-02-25T00:48:40.978Z,40.90
2019-02-25T00:51:13.555Z,40.90
2019-02-25T00:53:45.973Z,40.80
2019-02-25T00:56:18.388Z,40.80
2019-02-25T00:58:50.805Z,40.90
2019-02-25T01:01:23.328Z,41.00
2019-02-25T01:03:55.748Z,41.00
2019-02-25T01:06:28.230Z,41.10
2019-02-25T01:09:00.803Z,41.10
2019-02-25T01:11:34.588Z,41.20
2019-02-25T01:14:07.473Z,41.20
2019-02-25T01:16:40.847Z,41.20
2019-02-25T01:19:13.265Z,41.20
2019-02-25T01:21:46.923Z,41.30
2019-02-25T01:24:19.525Z,41.30
2019-02-25T01:26:52.182Z,41.30
2019-02-25T01:29:24.756Z,41.30
2019-02-25T01:31:57.142Z,41.30
2019-02-25T01:34:29.764Z,41.40
2019-02-25T01:37:02.454Z,41.40
2019-02-25T01:39:35.279Z,41.40
2019-02-25T01:42:09.018Z,41.50
2019-02-25T01:44:42.392Z,41.50
2019-02-25T01:47:14.889Z,41.50
2019-02-25T01:49:47.375Z,41.20
2019-02-25T01:52:19.772Z,40.70
2019-02-25T01:54:52.366Z,40.90
2019-02-25T01:57:25.409Z,41.10
2019-02-25T01:59:58.192Z,40.50
2019-02-25T02:02:31.987Z,40.20
2019-02-25T02:05:04.493Z,40.40
2019-02-25T02:07:36.872Z,40.60
2019-02-25T02:10:12.042Z,40.60
2019-02-25T02:12:44.502Z,40.70
2019-02-25T02:15:18.843Z,40.90
2019-02-25T02:17:52.654Z,41.10
2019-02-25T02:20:25.369Z,41.00
2019-02-25T02:22:57.754Z,41.10
2019-02-25T02:25:30.474Z,41.10
2019-02-25T02:28:02.904Z,41.10
2019-02-25T02:30:35.310Z,41.10
2019-02-25T02:33:08.150Z,41.00
2019-02-25T02:35:40.648Z,41.10
2019-02-25T02:38:13.270Z,41.10
2019-02-25T02:40:45.827Z,41.20
2019-02-25T02:43:18.300Z,41.20
2019-02-25T02:45:56.783Z,41.40
2019-02-25T02:48:34.439Z,41.40
2019-02-25T02:51:07.174Z,41.60
2019-02-25T02:53:40.191Z,41.40
2019-02-25T02:56:12.731Z,42.50
2019-02-25T02:58:45.207Z,42.00
2019-02-25T03:01:17.630Z,42.10
2019-02-25T03:03:51.206Z,42.10
2019-02-25T03:06:23.830Z,42.20
2019-02-25T03:08:56.218Z,42.20
2019-02-25T03:11:28.642Z,42.20
2019-02-25T03:14:01.022Z,42.30
2019-02-25T03:16:33.617Z,42.40
2019-02-25T03:19:06.110Z,42.40
2019-02-25T03:21:38.714Z,42.40
2019-02-25T03:24:11.283Z,42.40
2019-02-25T03:26:43.965Z,42.40
2019-02-25T03:29:16.378Z,42.40
2019-02-25T03:31:48.897Z,42.30
2019-02-25T03:34:21.455Z,42.50
2019-02-25T03:36:54.284Z,42.50
2019-02-25T03:39:27.033Z,42.80
2019-02-25T03:42:00.732Z,41.10
2019-02-25T03:44:33.201Z,39.10
2019-02-25T03:47:05.914Z,37.40
2019-02-25T03:49:39.396Z,36.00
2019-02-25T03:52:11.806Z,34.90
2019-02-25T03:54:44.370Z,33.90
2019-02-25T03:57:16.800Z,33.20
2019-02-25T03:59:49.257Z,32.60
2019-02-25T04:02:22.001Z,32.00
2019-02-25T04:04:54.491Z,31.60
2019-02-25T04:07:27.021Z,31.00
2019-02-25T04:09:59.556Z,30.60
2019-02-25T04:12:31.984Z,30.10
2019-02-25T04:15:04.820Z,30.60
2019-02-25T04:17:37.407Z,32.20
2019-02-25T04:20:12.625Z,33.40
2019-02-25T04:22:45.062Z,34.90
2019-02-25T04:25:17.446Z,36.00
2019-02-25T04:27:50.314Z,36.50
2019-02-25T04:30:22.904Z,37.00
2019-02-25T04:32:55.521Z,37.30
2019-02-25T04:35:27.985Z,37.70
2019-02-25T04:38:02.843Z,37.80
2019-02-25T04:40:34.223Z,38.00
2019-02-25T04:43:07.073Z,38.20
2019-02-25T04:45:39.582Z,38.30
2019-02-25T04:48:12.631Z,38.50
2019-02-25T04:50:45.161Z,38.50
2019-02-25T04:53:18.090Z,38.60
2019-02-25T04:55:50.462Z,38.70
2019-02-25T04:58:22.998Z,38.80
2019-02-25T05:00:55.404Z,38.70
2019-02-25T05:03:27.839Z,38.90
2019-02-25T05:06:00.313Z,39.00
2019-02-25T05:08:32.713Z,39.10
2019-02-25T05:11:05.172Z,39.20
2019-02-25T05:13:37.584Z,39.40
2019-02-25T05:16:10.198Z,39.40
2019-02-25T05:18:43.891Z,39.60
2019-02-25T05:21:16.443Z,39.70
2019-02-25T05:23:49.497Z,39.70
2019-02-25T05:26:22.160Z,39.80
2019-02-25T05:28:55.082Z,39.20
2019-02-25T05:31:27.449Z,38.30
2019-02-25T05:33:59.852Z,38.70
2019-02-25T05:36:32.365Z,38.90
2019-02-25T05:39:05.798Z,39.30
2019-02-25T05:41:38.191Z,39.60
2019-02-25T05:44:10.745Z,39.70
2019-02-25T05:46:43.116Z,39.90
2019-02-25T05:49:16.104Z,40.00
2019-02-25T05:51:48.462Z,40.10
2019-02-25T05:54:21.076Z,40.10
2019-02-25T05:56:53.544Z,40.90
2019-02-25T05:59:25.972Z,40.40
2019-02-25T06:01:58.345Z,40.40
2019-02-25T06:04:30.723Z,40.40
2019-02-25T06:07:03.224Z,40.50
2019-02-25T06:09:35.596Z,40.70
2019-02-25T06:12:08.063Z,40.50
2019-02-25T06:14:40.538Z,38.50
2019-02-25T06:17:13.075Z,36.80
2019-02-25T06:19:47.122Z,35.30
2019-02-25T06:22:19.591Z,34.30
2019-02-25T06:24:52.230Z,34.80
2019-02-25T06:27:30.636Z,35.70
2019-02-25T06:29:59.239Z,36.70
2019-02-25T06:32:31.912Z,37.50
2019-02-25T06:35:04.649Z,38.20
2019-02-25T06:37:37.106Z,38.50
2019-02-25T06:40:12.247Z,38.70
2019-02-25T06:42:44.751Z,38.80
2019-02-25T06:45:19.595Z,38.90
2019-02-25T06:47:51.990Z,39.00
2019-02-25T06:50:24.936Z,39.20
2019-02-25T06:52:57.512Z,39.30
2019-02-25T06:55:30.571Z,39.50
2019-02-25T06:58:03.032Z,39.50
2019-02-25T07:00:35.706Z,39.60
2019-02-25T07:03:08.099Z,39.70
2019-02-25T07:05:41.992Z,39.70
2019-02-25T07:08:15.848Z,39.80
2019-02-25T07:10:49.676Z,39.90
2019-02-25T07:13:29.215Z,40.00
2019-02-25T07:16:03.001Z,40.10
2019-02-25T07:18:49.053Z,40.10
2019-02-25T07:21:29.208Z,40.20
2019-02-25T07:24:12.066Z,40.20
2019-02-25T07:26:45.851Z,40.30
2019-02-25T07:29:28.510Z,40.40
2019-02-25T07:32:02.607Z,40.40
2019-02-25T07:34:38.858Z,40.50
2019-02-25T07:37:21.488Z,40.60
2019-02-25T07:39:57.763Z,40.60
2019-02-25T07:42:47.842Z,40.70
2019-02-25T07:45:27.686Z,40.70
2019-02-25T07:48:01.470Z,40.70
2019-02-25T07:50:35.393Z,40.80
2019-02-25T07:53:25.040Z,40.80
2019-02-25T07:56:15.171Z,40.80
2019-02-25T07:58:57.915Z,40.90
2019-02-25T08:01:32.796Z,40.90
2019-02-25T08:04:07.127Z,40.90
2019-02-25T08:06:47.053Z,40.90
2019-02-25T08:09:20.815Z,41.10
2019-02-25T08:11:57.361Z,41.00
2019-02-25T08:14:37.300Z,41.10
2019-02-25T08:17:11.032Z,41.10
2019-02-25T08:19:44.980Z,41.20
2019-02-25T08:22:34.929Z,41.10
2019-02-25T08:25:19.058Z,41.10
2019-02-25T08:28:01.358Z,41.20
2019-02-25T08:30:35.214Z,41.20
2019-02-25T08:33:25.714Z,41.20
2019-02-25T08:36:01.997Z,41.20
2019-02-25T08:38:55.251Z,41.20
2019-02-25T08:41:38.074Z,41.30
2019-02-25T08:44:17.683Z,41.30
2019-02-25T08:46:54.609Z,42.00
2019-02-25T08:49:31.558Z,41.40
2019-02-25T08:52:04.409Z,41.30
2019-02-25T08:54:36.920Z,41.20
2019-02-25T08:57:09.495Z,41.30
2019-02-25T08:59:41.962Z,41.40
2019-02-25T09:02:14.555Z,41.30
2019-02-25T09:04:46.921Z,41.30
2019-02-25T09:07:19.503Z,41.30
2019-02-25T09:09:52.006Z,41.30
2019-02-25T09:12:24.418Z,41.30
2019-02-25T09:14:56.980Z,41.30
2019-02-25T09:17:29.399Z,41.50
2019-02-25T09:20:01.770Z,40.00
2019-02-25T09:22:34.249Z,38.40
2019-02-25T09:25:08.494Z,36.80
2019-02-25T09:27:41.482Z,35.60
2019-02-25T09:30:18.367Z,35.60
2019-02-25T09:32:51.961Z,36.60
2019-02-25T09:35:24.594Z,37.60
2019-02-25T09:37:57.001Z,38.30
2019-02-25T09:40:29.463Z,38.80
2019-02-25T09:43:01.976Z,39.20
2019-02-25T09:45:34.367Z,39.40
2019-02-25T09:48:06.845Z,39.70
2019-02-25T09:50:39.465Z,39.80
2019-02-25T09:53:12.549Z,40.00
2019-02-25T09:55:44.915Z,40.10
2019-02-25T09:58:17.617Z,40.20
2019-02-25T10:00:50.072Z,40.30
2019-02-25T10:03:22.551Z,40.30
2019-02-25T10:05:54.915Z,40.20
2019-02-25T10:08:27.691Z,40.20
2019-02-25T10:11:00.662Z,40.40
2019-02-25T10:13:34.226Z,40.40
2019-02-25T10:16:06.798Z,40.40
2019-02-25T10:18:39.432Z,40.30
2019-02-25T10:21:11.897Z,40.40
2019-02-25T10:23:44.736Z,40.30
2019-02-25T10:26:17.437Z,40.40
2019-02-25T10:28:50.243Z,40.60
2019-02-25T10:31:23.621Z,40.00
2019-02-25T10:33:56.004Z,38.60
2019-02-25T10:36:28.558Z,37.00
2019-02-25T10:39:00.937Z,35.60
2019-02-25T10:41:34.634Z,34.50
2019-02-25T10:44:08.487Z,35.30
2019-02-25T10:46:42.859Z,36.10
2019-02-25T10:49:15.001Z,37.10
2019-02-25T10:51:48.635Z,37.80
2019-02-25T10:54:22.921Z,38.30
2019-02-25T10:56:55.921Z,38.60
2019-02-25T10:59:29.911Z,38.90
2019-02-25T11:02:03.259Z,39.10
2019-02-25T11:04:35.738Z,39.30
2019-02-25T11:07:09.675Z,39.40
2019-02-25T11:09:48.183Z,39.50
2019-02-25T11:12:21.569Z,39.70
2019-02-25T11:14:54.623Z,39.90
2019-02-25T11:17:26.969Z,39.90
2019-02-25T11:20:00.846Z,40.00
2019-02-25T11:22:34.491Z,40.00
2019-02-25T11:25:09.526Z,40.10
2019-02-25T11:27:42.582Z,40.10
2019-02-25T11:30:19.506Z,40.00
2019-02-25T11:32:55.078Z,38.60
2019-02-25T11:35:26.747Z,36.90
2019-02-25T11:38:01.586Z,35.50
2019-02-25T11:40:34.108Z,34.40
2019-02-25T11:43:08.395Z,34.80
2019-02-25T11:45:41.085Z,35.80
2019-02-25T11:48:13.468Z,36.80
2019-02-25T11:50:46.227Z,37.60
2019-02-25T11:53:18.786Z,38.10
2019-02-25T11:55:51.577Z,38.40
2019-02-25T11:58:24.357Z,38.60
2019-02-25T12:00:56.879Z,38.80
2019-02-25T12:03:29.514Z,39.00
2019-02-25T12:06:01.913Z,39.10
2019-02-25T12:08:34.287Z,39.30
2019-02-25T12:11:08.656Z,39.50
2019-02-25T12:13:40.601Z,39.60
2019-02-25T12:16:13.254Z,39.70
2019-02-25T12:18:45.598Z,39.90
2019-02-25T12:21:18.212Z,39.80
2019-02-25T12:23:50.666Z,38.70
2019-02-25T12:26:23.064Z,37.00
2019-02-25T12:28:55.459Z,35.50
2019-02-25T12:31:27.888Z,34.30
2019-02-25T12:34:00.282Z,34.20
2019-02-25T12:36:32.656Z,35.20
2019-02-25T12:39:05.385Z,36.20
2019-02-25T12:41:39.106Z,37.20
2019-02-25T12:44:11.485Z,37.70
2019-02-25T12:46:45.184Z,38.00
2019-02-25T12:49:17.551Z,38.30
2019-02-25T12:51:49.930Z,38.50
2019-02-25T12:54:22.467Z,38.70
2019-02-25T12:56:55.555Z,38.90
2019-02-25T12:59:28.074Z,39.00
2019-02-25T13:02:00.501Z,39.10
2019-02-25T13:04:32.961Z,39.20
2019-02-25T13:07:05.522Z,40.00
2019-02-25T13:09:37.919Z,37.80
2019-02-25T13:12:10.387Z,36.20
2019-02-25T13:14:42.950Z,36.50
2019-02-25T13:17:15.439Z,37.10
2019-02-25T13:19:47.805Z,37.80
2019-02-25T13:22:20.179Z,38.20
2019-02-25T13:24:52.774Z,38.50
2019-02-25T13:27:25.162Z,38.80
2019-02-25T13:29:57.525Z,38.90
2019-02-25T13:32:30.331Z,37.20
2019-02-25T13:35:02.861Z,35.60
2019-02-25T13:37:35.410Z,34.20
2019-02-25T13:40:10.395Z,34.20
2019-02-25T13:42:42.949Z,35.00
2019-02-25T13:45:17.315Z,36.30
2019-02-25T13:47:50.165Z,36.90
2019-02-25T13:50:22.766Z,37.60
2019-02-25T13:52:55.222Z,37.90
2019-02-25T13:55:28.243Z,38.20
2019-02-25T13:58:02.008Z,38.30
2019-02-25T14:00:34.490Z,38.50
2019-02-25T14:03:06.954Z,38.70
2019-02-25T14:05:39.444Z,38.60
2019-02-25T14:08:11.897Z,37.10
2019-02-25T14:10:44.803Z,35.60
2019-02-25T14:13:17.448Z,34.20
2019-02-25T14:15:50.084Z,33.30
2019-02-25T14:18:22.556Z,32.50
2019-02-25T14:20:54.951Z,32.10
2019-02-25T14:23:27.953Z,33.10
2019-02-25T14:26:00.443Z,34.20
2019-02-25T14:28:32.919Z,35.30
2019-02-25T14:31:05.983Z,36.20
2019-02-25T14:33:38.447Z,36.40
2019-02-25T14:36:12.285Z,34.80
2019-02-25T14:38:44.876Z,33.40
2019-02-25T14:41:18.548Z,32.40
2019-02-25T14:43:53.721Z,32.20
2019-02-25T14:46:26.848Z,30.90
2019-02-25T14:48:59.325Z,30.90
2019-02-25T14:51:31.783Z,30.60
2019-02-25T14:54:04.576Z,30.20
2019-02-25T14:56:37.374Z,29.90
2019-02-25T14:59:13.294Z,29.50
2019-02-25T15:01:44.254Z,29.30
2019-02-25T15:04:16.733Z,29.10
2019-02-25T15:06:49.384Z,29.40
2019-02-25T15:09:21.953Z,30.20
2019-02-25T15:11:55.901Z,31.40
2019-02-25T15:14:28.686Z,32.40
2019-02-25T15:17:01.349Z,33.10
2019-02-25T15:19:34.402Z,33.70
2019-02-25T15:22:07.808Z,34.40
2019-02-25T15:24:43.928Z,33.10
2019-02-25T15:27:14.277Z,31.90
2019-02-25T15:29:48.568Z,31.00
2019-02-25T15:32:21.306Z,31.00
2019-02-25T15:34:55.504Z,30.90
2019-02-25T15:37:27.753Z,30.90
2019-02-25T15:40:00.550Z,30.30
2019-02-25T15:42:37.204Z,30.00
2019-02-25T15:45:11.506Z,30.10
2019-02-25T15:47:44.907Z,30.70
2019-02-25T15:50:18.987Z,31.60
2019-02-25T15:52:51.482Z,33.10
2019-02-25T15:55:25.533Z,34.20
2019-02-25T15:57:57.866Z,35.00
2019-02-25T16:00:32.700Z,35.70
2019-02-25T16:03:06.146Z,36.10
2019-02-25T16:05:39.844Z,36.60
2019-02-25T16:08:16.194Z,37.00
2019-02-25T16:10:49.447Z,37.70
2019-02-25T16:13:21.213Z,38.60
2019-02-25T16:15:53.521Z,39.50
2019-02-25T16:18:27.853Z,40.30
2019-02-25T16:20:59.929Z,41.00
2019-02-25T16:23:34.152Z,40.80
2019-02-25T16:26:06.470Z,40.90
2019-02-25T16:28:39.902Z,41.00
2019-02-25T16:31:13.116Z,41.10
2019-02-25T16:33:47.098Z,41.20
2019-02-25T16:36:21.917Z,41.10
2019-02-25T16:38:56.206Z,41.30
2019-02-25T16:41:32.175Z,41.40
2019-02-25T16:44:04.563Z,41.60
2019-02-25T16:46:39.448Z,41.60
2019-02-25T16:49:11.099Z,42.70
2019-02-25T16:51:43.399Z,40.70
2019-02-25T16:54:18.872Z,39.00
2019-02-25T16:56:49.804Z,37.50
2019-02-25T16:59:24.428Z,36.40
2019-02-25T17:01:58.075Z,35.50
2019-02-25T17:04:31.837Z,36.20
2019-02-25T17:07:04.275Z,37.10
2019-02-25T17:09:38.794Z,38.00
2019-02-25T17:12:11.062Z,38.60
2019-02-25T17:14:43.404Z,39.10
2019-02-25T17:17:15.796Z,39.50
2019-02-25T17:19:48.145Z,39.70
2019-02-25T17:22:20.459Z,40.00
2019-02-25T17:24:54.268Z,40.20
2019-02-25T17:27:26.568Z,40.30
2019-02-25T17:29:59.843Z,40.30
2019-02-25T17:32:33.701Z,40.30
2019-02-25T17:35:07.457Z,40.30
2019-02-25T17:37:40.369Z,40.50
2019-02-25T17:40:15.134Z,40.50
2019-02-25T17:42:49.001Z,40.60
2019-02-25T17:45:25.105Z,40.60
2019-02-25T17:47:58.814Z,40.70
2019-02-25T17:50:34.581Z,40.80
2019-02-25T17:53:07.458Z,40.90
2019-02-25T17:55:40.536Z,40.90
2019-02-25T17:58:13.520Z,41.00
2019-02-25T18:00:47.538Z,41.20
2019-02-25T18:03:20.354Z,41.10
2019-02-25T18:05:53.659Z,41.10
2019-02-25T18:08:27.568Z,41.20
2019-02-25T18:11:00.178Z,41.20
2019-02-25T18:13:34.687Z,41.20
2019-02-25T18:16:08.573Z,41.30
2019-02-25T18:18:41.324Z,41.30
2019-02-25T18:21:14.842Z,41.40
2019-02-25T18:23:49.409Z,41.40
2019-02-25T18:26:21.473Z,41.50
2019-02-25T18:28:54.311Z,41.50
2019-02-25T18:31:27.158Z,41.60
2019-02-25T18:33:59.482Z,41.70
2019-02-25T18:36:33.229Z,41.70
2019-02-25T18:39:07.836Z,41.60
2019-02-25T18:41:41.379Z,41.60
2019-02-25T18:44:15.257Z,41.70
2019-02-25T18:46:49.855Z,41.70
2019-02-25T18:49:21.976Z,41.70
2019-02-25T18:51:54.508Z,41.80
2019-02-25T18:54:26.785Z,41.90
2019-02-25T18:57:00.752Z,41.80
2019-02-25T18:59:34.213Z,41.90
2019-02-25T19:02:07.973Z,41.80
2019-02-25T19:04:41.390Z,41.90
2019-02-25T19:07:14.864Z,42.00
2019-02-25T19:09:49.164Z,42.00
2019-02-25T19:12:21.414Z,42.00
2019-02-25T19:14:55.770Z,42.00
2019-02-25T19:17:29.369Z,42.00
2019-02-25T19:20:01.695Z,42.00
2019-02-25T19:22:35.592Z,42.10
2019-02-25T19:25:10.786Z,42.10
2019-02-25T19:27:44.450Z,42.10
2019-02-25T19:30:22.249Z,42.10
2019-02-25T19:32:55.046Z,42.30
2019-02-25T19:35:28.690Z,42.20
2019-02-25T19:38:03.661Z,42.20
2019-02-25T19:40:38.413Z,42.20
2019-02-25T19:43:09.899Z,42.20
2019-02-25T19:45:43.291Z,42.30
2019-02-25T19:48:19.474Z,42.30
2019-02-25T19:50:53.903Z,42.30
2019-02-25T19:53:25.555Z,42.30
2019-02-25T19:55:57.943Z,42.40
2019-02-25T19:58:33.499Z,42.40
2019-02-25T20:01:06.198Z,42.40
2019-02-25T20:03:40.043Z,42.40
2019-02-25T20:06:16.007Z,42.40
2019-02-25T20:08:48.746Z,42.40
2019-02-25T20:11:21.182Z,42.40
2019-02-25T20:13:53.473Z,42.50
2019-02-25T20:16:29.393Z,42.40
2019-02-25T20:19:00.299Z,42.50
2019-02-25T20:21:33.576Z,42.60
2019-02-25T20:24:10.127Z,42.50
2019-02-25T20:26:39.685Z,42.50
2019-02-25T20:29:12.773Z,42.50
2019-02-25T20:31:45.223Z,42.60
2019-02-25T20:34:20.516Z,42.60
2019-02-25T20:36:53.056Z,42.60
2019-02-25T20:39:26.398Z,42.60
2019-02-25T20:42:00.406Z,42.50
2019-02-25T20:44:34.793Z,42.70
2019-02-25T20:47:06.720Z,42.60
2019-02-25T20:49:39.306Z,42.60
2019-02-25T20:52:12.164Z,42.60
2019-02-25T20:54:47.300Z,42.60
2019-02-25T20:57:19.307Z,42.60
2019-02-25T20:59:53.241Z,42.60
2019-02-25T21:02:25.807Z,42.60
2019-02-25T21:04:58.408Z,42.60
2019-02-25T21:07:32.263Z,42.60
2019-02-25T21:10:06.051Z,42.60
2019-02-25T21:12:38.977Z,42.60
2019-02-25T21:15:19.721Z,42.70
2019-02-25T21:17:52.813Z,42.70
2019-02-25T21:20:28.879Z,42.80
2019-02-25T21:23:03.520Z,42.70
2019-02-25T21:25:36.755Z,42.80
2019-02-25T21:28:09.669Z,42.80
2019-02-25T21:30:44.158Z,42.70
2019-02-25T21:33:18.044Z,42.70
2019-02-25T21:35:50.711Z,42.80
2019-02-25T21:38:24.346Z,42.70
2019-02-25T21:40:56.927Z,42.70
2019-02-25T21:43:29.267Z,42.60
2019-02-25T21:46:01.796Z,42.50
2019-02-25T21:48:34.877Z,42.40
2019-02-25T21:51:10.081Z,42.30
2019-02-25T21:53:42.817Z,42.10
2019-02-25T21:56:16.828Z,42.10
2019-02-25T21:58:50.876Z,42.10
2019-02-25T22:01:23.984Z,42.30
2019-02-25T22:03:56.393Z,42.20
2019-02-25T22:06:29.630Z,42.30
2019-02-25T22:09:09.212Z,42.40
2019-02-25T22:11:42.794Z,42.40
2019-02-25T22:14:16.412Z,42.50
2019-02-25T22:16:50.436Z,42.50
2019-02-25T22:19:24.672Z,42.50
2019-02-25T22:21:58.090Z,42.50
2019-02-25T22:24:32.089Z,42.50
2019-02-25T22:27:04.923Z,42.50
2019-02-25T22:29:38.720Z,42.50
2019-02-25T22:32:11.174Z,42.50
2019-02-25T22:34:43.411Z,42.60
2019-02-25T22:37:17.493Z,42.70
2019-02-25T22:39:50.911Z,42.70
2019-02-25T22:42:25.272Z,42.80
2019-02-25T22:44:57.486Z,42.80
2019-02-25T22:47:29.740Z,42.80
2019-02-25T22:50:02.130Z,42.90
2019-02-25T22:52:35.573Z,42.80
2019-02-25T22:55:12.232Z,42.90
2019-02-25T22:57:45.939Z,42.90
2019-02-25T23:00:34.905Z,43.00
2019-02-25T23:03:11.150Z,42.90
2019-02-25T23:05:43.630Z,42.90
2019-02-25T23:08:18.051Z,43.00
2019-02-25T23:10:51.758Z,43.00
2019-02-25T23:13:25.785Z,43.00
2019-02-25T23:15:58.654Z,43.10
2019-02-25T23:18:30.981Z,43.10
2019-02-25T23:21:03.282Z,43.10
2019-02-25T23:23:37.741Z,43.10
2019-02-25T23:26:10.432Z,43.20
2019-02-25T23:28:43.500Z,43.20
2019-02-25T23:31:15.832Z,43.20
2019-02-25T23:33:48.903Z,43.20
2019-02-25T23:36:23.973Z,43.20
2019-02-25T23:38:57.153Z,43.20
2019-02-25T23:41:34.381Z,43.20
2019-02-25T23:44:04.222Z,43.20
2019-02-25T23:46:37.238Z,43.30
2019-02-25T23:49:10.304Z,43.20
2019-02-25T23:51:43.747Z,43.20
2019-02-25T23:54:18.455Z,43.20
2019-02-25T23:56:52.536Z,43.20
2019-02-25T23:59:26.437Z,43.30
